Etusivu
METAR-TAF:

METAR-TAF

Lentoasemat :

Kairon kansainvälinen lentoasema

Kairo, Egypti

Leveyspiiri: 30-08N, Pituuspiiri: 031-24E, korkeus merenpinnasta: 64 m

Tämänhetkinen sää

Tämä raportti tehtiin 25 minuuttia sitten, kello 04.00 UTC
Tuuli 5 kn luoteesta
Lämpötila 25°C
Kosteus 79%
Ilmanpaine 1009 hPa
Näkyvyys 10 km tai enemmän
ei pilviä alle 1500 m:ssä eikä cumulonimbus-pilviä

METAR: HECA 220400Z 31005KT CAVOK 25/21 Q1009 NOSIG

Aika: 06:25 (04:25 UTC)

Sääennuste

Tämä raportti tehtiin 5 tuntia ja 25 minuuttia sitten, kello 23.00 UTC
Ennuste voimassa 22. päivästä klo 00 UTC - 23. päivään klo 06 UTC
Tuuli 10 kn luoteesta
Näkyvyys 10 km tai enemmän
ei pilviä alle 1500 m:ssä eikä cumulonimbus-pilviä
Ajoittain
22. päivästä klo 03 UTC - 22. päivään klo 06 UTC
Tuuli 3 kn eri suunnista
Näkyvyys: 3000 m
usvaa

TAF: HECA 212300Z 2200/2306 32010KT CAVOK TEMPO 2203/2206 VRB03KT 3000 HZ NSC

Säähavainnot ja -ennusteet yli 4000 lentoasemalta (METAR- ja TAF-raportit).

Käytössä olevat sääasemat on merkitty karttaan keltaisilla ja punaisilla pisteillä.

Aseta hiiri pisteen päälle nähdäksesi sääaseman nimen.

Klikkaa sitten nähdäksesi säähavainnot ja -ennusteet.

Kartan vaihtaminen: klikkaa mustalla rastilla varustettuja vihreitä pisteitä, niin voit zoomata sisään; viivalla varustettua vihreää pistettä, niin voit zoomata ulos tai vihreitä nuolia, niin pääset viereisille kartoille.


METAR-TAF: